Time;durP1;ratioP1;P1;durP2;ratioP2;P2;SDS_P1;SDS_P2;PMS_P1;PMS_P2;Temp;Humidity;BMP_temperature;BMP_pressure;BME280_temperature;BME280_humidity;BME280_pressure;Samples;Min_cycle;Max_cycle;Signal;HPM_P1;HPM_P2
2023/01/24 00:00:49;;;;;;;14.57;9.70;;;;;;;17.92;40.63;101709.88;5043740;28;20234;-63
2023/01/24 00:03:15;;;;;;;14.70;9.27;;;;;;;18.09;40.44;101701.19;5038428;28;20199;-63
2023/01/24 00:05:44;;;;;;;11.50;8.20;;;;;;;18.10;40.56;101694.28;5031133;28;20204;-63
2023/01/24 00:08:14;;;;;;;12.70;7.97;;;;;;;18.03;41.13;101698.88;5029736;28;20992;-63
2023/01/24 00:10:39;;;;;;;14.63;8.00;;;;;;;18.02;41.59;101692.31;5033656;28;20474;-63
2023/01/24 00:13:05;;;;;;;10.47;7.40;;;;;;;18.05;41.11;101693.63;5031233;28;20934;-63
2023/01/24 00:15:30;;;;;;;12.07;7.93;;;;;;;17.97;41.95;101703.94;5030437;28;20179;-63
2023/01/24 00:17:56;;;;;;;18.60;8.47;;;;;;;17.86;42.53;101707.53;5030080;28;20181;-63
2023/01/24 00:20:21;;;;;;;15.13;7.30;;;;;;;17.76;42.75;101714.44;5029977;28;20196;-63
2023/01/24 00:22:47;;;;;;;12.80;7.13;;;;;;;17.73;43.13;101715.16;5031397;28;20511;-63
2023/01/24 00:25:12;;;;;;;10.13;6.83;;;;;;;17.75;43.20;101706.25;5034949;28;20199;-63
2023/01/24 00:27:37;;;;;;;11.00;7.00;;;;;;;17.64;43.21;101710.63;5032945;28;20650;-63
2023/01/24 00:30:04;;;;;;;11.77;6.90;;;;;;;17.72;43.53;101713.47;5039614;28;20211;-63
2023/01/24 00:32:29;;;;;;;13.83;7.13;;;;;;;17.73;43.63;101720.84;5031098;28;20196;-63
2023/01/24 00:34:55;;;;;;;11.63;6.90;;;;;;;17.77;44.15;101715.28;5029522;28;20489;-63
2023/01/24 00:37:20;;;;;;;12.00;6.93;;;;;;;17.77;44.20;101721.00;5031002;28;20164;-63
2023/01/24 00:39:46;;;;;;;9.37;6.70;;;;;;;17.83;44.21;101719.63;5033178;28;20678;-63
2023/01/24 00:42:11;;;;;;;9.93;6.80;;;;;;;17.87;44.05;101718.63;5042390;28;20233;-63
2023/01/24 00:44:36;;;;;;;11.87;7.33;;;;;;;17.90;44.37;101714.25;5046524;28;20187;-63
2023/01/24 00:47:02;;;;;;;8.77;5.93;;;;;;;17.90;44.30;101709.34;5050738;28;20189;-63
2023/01/24 00:49:27;;;;;;;11.83;6.80;;;;;;;17.84;44.51;101712.75;5048718;28;20180;-63
2023/01/24 00:51:53;;;;;;;9.90;6.17;;;;;;;17.79;44.94;101719.50;5032010;28;20206;-63
2023/01/24 00:54:18;;;;;;;10.47;6.40;;;;;;;17.73;45.15;101722.88;5030786;28;20160;-63
2023/01/24 00:56:44;;;;;;;9.17;6.37;;;;;;;17.66;45.60;101729.09;5036612;28;20211;-63
2023/01/24 00:59:09;;;;;;;10.00;6.83;;;;;;;17.65;45.79;101724.56;5045985;28;20208;-63
2023/01/24 01:01:35;;;;;;;11.57;6.30;;;;;;;17.66;45.77;101720.53;5030592;28;20235;-63
2023/01/24 01:04:00;;;;;;;11.90;5.90;;;;;;;17.65;46.06;101736.00;5037412;28;20196;-63
2023/01/24 01:06:26;;;;;;;10.03;6.10;;;;;;;17.61;45.79;101732.13;5045905;28;20219;-63
2023/01/24 01:08:51;;;;;;;9.40;6.30;;;;;;;17.61;46.39;101734.16;5049139;28;20190;-63
2023/01/24 01:11:17;;;;;;;14.70;7.07;;;;;;;17.58;46.36;101734.84;5043445;28;20215;-63
2023/01/24 01:13:42;;;;;;;8.90;5.80;;;;;;;17.54;46.76;101734.69;5030547;28;20521;-63
2023/01/24 01:16:12;;;;;;;8.30;5.77;;;;;;;17.54;46.42;101743.25;5031608;28;20188;-63
2023/01/24 01:18:38;;;;;;;10.57;6.43;;;;;;;17.58;46.60;101749.13;5036462;28;20196;-63
2023/01/24 01:21:04;;;;;;;8.90;5.43;;;;;;;17.53;46.83;101744.44;5034272;28;20487;-63
2023/01/24 01:23:29;;;;;;;9.47;5.30;;;;;;;17.52;46.91;101753.34;5036508;28;20200;-63
2023/01/24 01:26:01;;;;;;;9.57;5.07;;;;;;;17.56;46.85;101751.47;5034198;28;20187;-63
2023/01/24 01:28:27;;;;;;;10.93;6.30;;;;;;;17.53;46.69;101744.44;5034306;28;20190;-63
2023/01/24 01:30:52;;;;;;;10.03;6.03;;;;;;;17.57;47.10;101736.88;5036045;28;20419;-63
2023/01/24 01:33:18;;;;;;;9.53;6.00;;;;;;;17.55;47.10;101741.25;5034520;28;20298;-63
2023/01/24 01:35:43;;;;;;;7.83;5.43;;;;;;;17.52;47.27;101741.91;5043347;28;20234;-63
2023/01/24 01:38:09;;;;;;;7.67;5.20;;;;;;;17.52;47.28;101733.34;5033828;28;20168;-63
2023/01/24 01:40:34;;;;;;;12.30;6.83;;;;;;;17.54;47.39;101745.25;5034648;28;20219;-63
2023/01/24 01:43:00;;;;;;;9.77;6.30;;;;;;;17.56;47.28;101737.22;5053690;28;20207;-63
2023/01/24 01:45:40;;;;;;;9.03;6.00;;;;;;;17.54;47.37;101743.25;5052416;28;20164;-63
2023/01/24 01:48:17;;;;;;;8.40;5.67;;;;;;;17.54;47.85;101745.25;5039509;28;20254;-63
2023/01/24 01:50:46;;;;;;;7.40;5.17;;;;;;;17.54;47.30;101746.09;5033727;28;20772;-63
2023/01/24 01:53:11;;;;;;;8.60;6.17;;;;;;;17.52;47.42;101737.06;5033756;28;20395;-63
2023/01/24 01:55:38;;;;;;;9.70;5.37;;;;;;;17.52;47.37;101748.47;5036065;28;20419;-63
2023/01/24 01:58:04;;;;;;;11.10;5.40;;;;;;;17.50;47.84;101744.28;5035863;28;20188;-63
2023/01/24 02:00:38;;;;;;;9.37;5.17;;;;;;;17.45;47.85;101751.00;5035933;28;20496;-63
2023/01/24 02:05:53;;;;;;;8.90;5.57;;;;;;;17.49;47.93;101749.13;5046514;28;20457;-63
2023/01/24 02:08:20;;;;;;;8.17;5.30;;;;;;;17.45;48.10;101748.13;5053192;28;20406;-63
2023/01/24 02:13:31;;;;;;;7.27;4.93;;;;;;;17.49;48.30;101743.44;5033361;28;20477;-63
2023/01/24 02:16:02;;;;;;;7.50;4.90;;;;;;;17.48;48.15;101761.75;5032323;28;20399;-63
2023/01/24 02:18:28;;;;;;;6.80;4.60;;;;;;;17.49;48.01;101757.69;5035353;28;20458;-63
2023/01/24 02:20:53;;;;;;;7.30;5.30;;;;;;;17.46;48.31;101749.81;5032921;28;20425;-63
2023/01/24 02:23:36;;;;;;;10.63;4.77;;;;;;;17.44;48.39;101765.59;5040685;28;20208;-63
2023/01/24 02:26:08;;;;;;;8.60;5.30;;;;;;;17.47;48.38;101762.06;5033404;28;20165;-63
2023/01/24 02:28:33;;;;;;;6.97;4.97;;;;;;;17.46;48.36;101766.94;5033164;28;20427;-62
2023/01/24 02:30:59;;;;;;;9.50;5.90;;;;;;;17.43;48.07;101773.34;5015708;28;20423;-63
2023/01/24 02:33:25;;;;;;;6.80;4.70;;;;;;;17.47;48.16;101773.50;5032787;28;20160;-63
2023/01/24 02:35:50;;;;;;;8.27;5.93;;;;;;;17.48;48.63;101773.16;5038848;28;20255;-63
2023/01/24 02:38:26;;;;;;;10.97;5.40;;;;;;;17.48;48.44;101775.16;5052672;28;20669;-63
2023/01/24 02:40:54;;;;;;;8.30;5.07;;;;;;;17.44;48.65;101777.00;5048361;28;20234;-63
2023/01/24 02:43:20;;;;;;;8.20;5.80;;;;;;;17.43;48.89;101778.19;5035021;28;20854;-63
2023/01/24 02:45:45;;;;;;;7.67;5.13;;;;;;;17.45;48.71;101770.16;5014940;28;20832;-63
2023/01/24 02:48:11;;;;;;;6.73;5.03;;;;;;;17.48;48.08;101786.59;5035147;28;20438;-63
2023/01/24 02:53:29;;;;;;;8.47;4.67;;;;;;;17.45;49.03;101793.81;5032562;28;20531;-63
2023/01/24 02:58:48;;;;;;;7.50;5.33;;;;;;;17.40;48.64;101791.13;5040260;28;20492;-63
2023/01/24 03:01:16;;;;;;;6.70;4.60;;;;;;;17.37;48.96;101788.94;5034620;28;20923;-63
2023/01/24 03:03:43;;;;;;;7.03;4.73;;;;;;;17.43;48.51;101783.91;5039200;28;20234;-63
2023/01/24 03:06:10;;;;;;;8.10;5.53;;;;;;;17.43;48.88;101793.31;5044075;28;20462;-63
2023/01/24 03:08:35;;;;;;;8.80;5.13;;;;;;;17.40;49.02;101778.91;5049940;28;20433;-63
2023/01/24 03:11:01;;;;;;;7.80;5.00;;;;;;;17.43;48.99;101783.91;5051486;28;20406;-63
2023/01/24 03:35:19;;;;;;;9.00;4.87;;;;;;;17.36;49.04;101787.22;5030849;28;20417;-63
2023/01/24 03:40:28;;;;;;;6.97;4.97;;;;;;;17.45;49.18;101775.88;5033019;28;20199;-63
2023/01/24 03:42:54;;;;;;;6.90;4.57;;;;;;;17.42;48.92;101782.22;5031605;28;20941;-63
2023/01/24 03:45:24;;;;;;;6.53;4.57;;;;;;;17.42;49.08;101791.66;5031811;28;20177;-63
2023/01/24 03:47:54;;;;;;;7.63;5.13;;;;;;;17.43;49.13;101798.19;5032187;28;20180;-63
2023/01/24 03:53:06;;;;;;;6.37;4.57;;;;;;;17.37;49.34;101794.66;5031585;28;20588;-63
2023/01/24 03:55:32;;;;;;;7.03;4.47;;;;;;;17.41;48.84;101797.69;5033043;28;20434;-63
2023/01/24 03:57:58;;;;;;;6.97;4.57;;;;;;;17.36;49.19;101798.66;5032064;28;20474;-63
2023/01/24 04:00:23;;;;;;;5.70;3.90;;;;;;;17.35;49.34;101796.16;5033708;28;20219;-63
2023/01/24 04:02:49;;;;;;;5.87;4.40;;;;;;;17.37;49.23;101796.66;5034430;28;20474;-63
2023/01/24 04:05:15;;;;;;;7.20;4.67;;;;;;;17.32;49.36;101800.53;5037465;28;20912;-63
2023/01/24 04:07:40;;;;;;;8.10;4.97;;;;;;;17.39;49.60;101800.88;5031633;28;20166;-63
2023/01/24 04:10:06;;;;;;;7.60;4.73;;;;;;;17.34;49.30;101798.16;5034273;28;20435;-63
2023/01/24 04:12:32;;;;;;;6.27;4.60;;;;;;;17.34;49.33;101803.03;5049653;28;20171;-63
2023/01/24 04:14:57;;;;;;;7.43;4.93;;;;;;;17.39;49.42;101800.88;5047706;28;20700;-63
2023/01/24 04:17:22;;;;;;;7.63;5.20;;;;;;;17.36;49.34;101801.50;5051115;28;20190;-63
2023/01/24 04:19:48;;;;;;;8.00;4.80;;;;;;;17.36;49.09;101795.78;5047764;28;20175;-63
2023/01/24 04:22:15;;;;;;;7.07;4.60;;;;;;;17.37;49.62;101803.22;5031359;28;20160;-63
2023/01/24 04:24:41;;;;;;;7.10;4.80;;;;;;;17.34;49.37;101792.44;5031320;28;20555;-63
2023/01/24 04:27:06;;;;;;;6.30;4.73;;;;;;;17.33;49.42;101790.78;5034565;28;20512;-63
2023/01/24 04:29:31;;;;;;;6.13;4.50;;;;;;;17.35;49.13;101799.00;5032279;28;20180;-63
2023/01/24 04:31:57;;;;;;;6.30;4.83;;;;;;;17.35;49.35;101802.69;5045535;28;20644;-63
2023/01/24 04:34:22;;;;;;;6.40;4.37;;;;;;;17.31;49.70;101795.97;5051195;28;20187;-63
2023/01/24 04:36:48;;;;;;;5.87;4.23;;;;;;;17.33;49.62;101795.63;5052019;28;20172;-63
2023/01/24 04:39:13;;;;;;;6.47;4.33;;;;;;;17.34;49.59;101801.03;5049332;28;20194;-63
2023/01/24 04:41:38;;;;;;;6.00;4.70;;;;;;;17.33;49.52;101807.91;5049731;28;20168;-63
2023/01/24 04:44:04;;;;;;;6.80;4.70;;;;;;;17.33;49.57;101807.06;5045481;28;20212;-63
2023/01/24 04:46:29;;;;;;;6.87;4.40;;;;;;;17.41;49.39;101801.38;5033774;28;20191;-63
2023/01/24 04:48:55;;;;;;;7.63;4.50;;;;;;;17.38;49.71;101809.75;5031296;28;20187;-63
2023/01/24 04:51:20;;;;;;;5.17;3.70;;;;;;;17.41;49.58;101804.22;5032927;28;20557;-63
2023/01/24 04:53:46;;;;;;;7.40;4.37;;;;;;;17.43;49.29;101813.31;5037271;28;20180;-63
2023/01/24 04:56:11;;;;;;;4.70;3.77;;;;;;;17.40;49.34;101810.28;5034790;28;20230;-63
2023/01/24 04:58:36;;;;;;;5.40;3.90;;;;;;;17.38;49.56;101804.03;5037266;28;20938;-63
2023/01/24 05:01:02;;;;;;;5.40;4.10;;;;;;;17.40;49.53;101813.16;5034570;28;20239;-63
2023/01/24 05:03:27;;;;;;;7.57;4.63;;;;;;;17.44;49.42;101811.28;5041527;28;20195;-63
2023/01/24 05:05:53;;;;;;;5.77;4.03;;;;;;;17.45;49.51;101810.94;5035729;28;20240;-63
2023/01/24 05:08:19;;;;;;;5.57;4.10;;;;;;;17.38;49.86;101822.00;5036112;28;20184;-63
2023/01/24 05:10:44;;;;;;;6.60;4.23;;;;;;;17.37;49.26;101823.19;5051294;28;20270;-63
2023/01/24 05:13:10;;;;;;;5.80;4.03;;;;;;;17.37;49.56;101823.19;5035032;28;20182;-64
2023/01/24 05:15:35;;;;;;;6.50;4.50;;;;;;;17.40;49.46;101824.56;5050937;28;20282;-63
2023/01/24 05:18:01;;;;;;;5.37;4.20;;;;;;;17.37;49.73;101825.19;5054788;28;20172;-63
2023/01/24 05:20:26;;;;;;;6.70;4.33;;;;;;;17.39;49.40;101823.72;5054515;28;20160;-63
2023/01/24 05:22:53;;;;;;;7.80;4.37;;;;;;;17.37;49.65;101831.75;5053358;28;20663;-63
2023/01/24 05:25:19;;;;;;;6.20;4.20;;;;;;;17.40;49.78;101830.28;5018781;28;20643;-63
2023/01/24 05:27:44;;;;;;;6.77;4.67;;;;;;;17.35;49.68;101824.72;5036839;28;20419;-63
2023/01/24 05:30:10;;;;;;;7.03;4.23;;;;;;;17.35;49.64;101831.22;5047698;28;20268;-63
2023/01/24 05:32:36;;;;;;;5.90;4.00;;;;;;;17.35;49.59;101839.78;5053861;28;20230;-63
2023/01/24 05:35:01;;;;;;;5.47;4.10;;;;;;;17.38;49.47;101838.28;5049957;28;20183;-63
2023/01/24 05:37:26;;;;;;;5.83;4.43;;;;;;;17.33;49.65;101836.44;5054095;28;20168;-63
2023/01/24 05:39:52;;;;;;;6.60;4.47;;;;;;;17.35;49.74;101839.78;5052575;28;20191;-63
2023/01/24 05:42:18;;;;;;;6.00;3.67;;;;;;;17.35;49.42;101844.69;5037978;28;20567;-63
2023/01/24 05:44:43;;;;;;;6.30;3.97;;;;;;;17.37;49.52;101840.31;5033925;28;20200;-63
2023/01/24 05:47:08;;;;;;;5.60;3.90;;;;;;;17.40;50.00;101847.41;5040946;28;20192;-63
2023/01/24 05:49:34;;;;;;;5.80;3.67;;;;;;;17.37;49.87;101846.03;5053916;28;20570;-63
2023/01/24 05:51:59;;;;;;;6.53;5.07;;;;;;;17.38;49.56;101841.13;5053841;28;20160;-63
2023/01/24 05:54:25;;;;;;;5.80;4.40;;;;;;;17.38;49.54;101841.13;5036703;28;20181;-63
2023/01/24 05:56:50;;;;;;;5.60;4.00;;;;;;;17.41;49.85;101846.22;5046277;28;20538;-63
2023/01/24 05:59:15;;;;;;;5.43;4.30;;;;;;;17.39;49.91;101848.56;5046156;28;20195;-63
2023/01/24 06:01:41;;;;;;;6.00;3.73;;;;;;;17.34;49.60;101854.41;5035635;28;20239;-63
2023/01/24 06:04:06;;;;;;;6.43;4.67;;;;;;;17.36;49.93;101858.59;5039526;28;20205;-63
2023/01/24 06:06:32;;;;;;;7.73;4.53;;;;;;;17.35;49.86;101858.97;5035110;28;20208;-63
2023/01/24 06:08:57;;;;;;;7.77;4.70;;;;;;;17.34;49.98;101862.97;5034170;28;20187;-63
2023/01/24 06:11:24;;;;;;;5.33;3.90;;;;;;;17.38;49.97;101867.69;5035810;28;20181;-63
2023/01/24 06:13:50;;;;;;;6.03;4.30;;;;;;;17.38;49.86;101870.53;5035789;28;20275;-63
2023/01/24 06:16:19;;;;;;;6.53;3.90;;;;;;;17.44;49.80;101872.09;5044826;28;20422;-63
2023/01/24 06:18:45;;;;;;;6.80;4.20;;;;;;;17.39;50.27;101877.09;5049126;28;20186;-63
2023/01/24 06:21:16;;;;;;;4.60;3.47;;;;;;;17.43;49.77;101880.97;5031154;28;20486;-63
2023/01/24 06:23:42;;;;;;;5.70;4.10;;;;;;;17.37;49.83;101886.00;5033783;28;20350;-63
2023/01/24 06:26:11;;;;;;;7.47;4.20;;;;;;;17.40;49.74;101882.50;5051975;28;20426;-63
2023/01/24 06:28:37;;;;;;;8.20;4.43;;;;;;;17.38;49.91;101890.53;5043789;28;20192;-63
2023/01/24 06:31:09;;;;;;;5.70;3.80;;;;;;;17.31;49.92;101884.44;5032886;28;20427;-63
2023/01/24 06:34:01;;;;;;;6.33;4.13;;;;;;;17.39;49.86;101889.38;5025414;28;20434;-63
2023/01/24 06:36:53;;;;;;;7.20;4.83;;;;;;;17.39;50.11;101895.09;5033602;28;20446;-63
2023/01/24 06:39:20;;;;;;;7.07;4.27;;;;;;;17.40;49.78;101887.38;5050275;28;20825;-62
2023/01/24 06:41:46;;;;;;;5.10;3.40;;;;;;;17.41;49.80;101904.16;5035027;28;20435;-63
2023/01/24 06:44:12;;;;;;;5.97;3.73;;;;;;;17.41;49.80;101900.47;5032799;28;20957;-63
2023/01/24 06:46:37;;;;;;;6.47;4.23;;;;;;;17.41;49.81;101894.75;5036879;28;20199;-63
2023/01/24 06:49:02;;;;;;;4.80;3.57;;;;;;;17.40;49.86;101901.66;5032983;28;20185;-63
2023/01/24 06:51:28;;;;;;;6.30;4.13;;;;;;;17.41;49.84;101901.28;5034005;28;20180;-63
2023/01/24 06:53:53;;;;;;;5.60;3.60;;;;;;;17.42;49.67;101896.44;5033788;28;20172;-63
2023/01/24 06:56:19;;;;;;;5.10;3.53;;;;;;;17.38;50.25;101898.25;5032700;28;20234;-63
2023/01/24 06:58:44;;;;;;;5.60;4.20;;;;;;;17.37;50.06;101907.97;5031220;28;20165;-63
2023/01/24 07:01:09;;;;;;;5.13;3.73;;;;;;;17.45;49.80;101908.00;5034121;28;20337;-63
2023/01/24 07:03:35;;;;;;;7.20;4.30;;;;;;;17.44;49.88;101900.63;5037723;28;20571;-63
2023/01/24 07:06:01;;;;;;;5.00;3.40;;;;;;;17.44;49.84;101917.75;5032551;28;20196;-63
2023/01/24 07:08:26;;;;;;;5.37;3.77;;;;;;;17.38;49.98;101906.81;5032343;28;20260;-63
2023/01/24 07:10:51;;;;;;;7.20;3.87;;;;;;;17.37;50.19;101911.69;5035034;28;20256;-63
2023/01/24 07:13:17;;;;;;;7.03;4.37;;;;;;;17.36;50.21;101909.97;5038959;28;20925;-63
2023/01/24 07:15:42;;;;;;;6.80;4.43;;;;;;;17.39;49.99;101915.06;5040281;28;20187;-63
2023/01/24 07:18:10;;;;;;;6.93;3.90;;;;;;;17.42;50.03;101917.28;5037693;28;20187;-63
2023/01/24 07:20:36;;;;;;;5.00;3.80;;;;;;;17.41;49.67;101920.44;5033069;28;20276;-63
2023/01/24 07:23:02;;;;;;;7.13;4.37;;;;;;;17.40;49.62;101925.31;5030406;28;20463;-63
2023/01/24 07:25:27;;;;;;;6.30;3.83;;;;;;;17.39;49.76;101929.34;5029581;28;20208;-63
2023/01/24 07:27:53;;;;;;;6.27;3.40;;;;;;;17.40;50.16;101930.19;5030918;28;20790;-64
2023/01/24 07:30:19;;;;;;;5.43;3.73;;;;;;;17.41;49.74;101931.88;5035669;28;20612;-63
2023/01/24 07:32:44;;;;;;;5.80;3.77;;;;;;;17.46;49.66;101932.53;5031865;28;20263;-63
2023/01/24 07:35:09;;;;;;;6.00;3.80;;;;;;;17.44;49.84;101937.75;5034175;28;20219;-64
2023/01/24 07:37:35;;;;;;;5.63;3.83;;;;;;;17.44;49.57;101939.75;5031987;28;20227;-64
2023/01/24 07:40:00;;;;;;;5.13;3.50;;;;;;;17.39;50.01;101940.75;5030558;28;20187;-63
2023/01/24 07:42:26;;;;;;;5.13;3.80;;;;;;;17.48;49.85;101950.19;5031898;28;20188;-62
2023/01/24 07:44:53;;;;;;;14.93;8.13;;;;;;;16.79;44.44;101961.69;5042476;28;20206;-62
2023/01/24 07:47:19;;;;;;;13.10;8.70;;;;;;;16.30;46.10;101954.19;5038671;28;20211;-63
2023/01/24 07:49:44;;;;;;;17.97;11.47;;;;;;;16.89;47.79;101949.97;5039667;28;20425;-63
2023/01/24 07:52:10;;;;;;;20.50;12.00;;;;;;;17.47;49.36;101948.50;5047949;28;20222;-62
2023/01/24 07:54:35;;;;;;;21.83;12.70;;;;;;;17.73;48.58;101957.94;5030247;28;20188;-62
2023/01/24 07:57:01;;;;;;;24.30;11.23;;;;;;;17.65;47.79;101961.63;5029538;28;20176;-62
2023/01/24 07:59:26;;;;;;;18.30;10.83;;;;;;;17.87;48.74;101967.19;5034530;28;20192;-63
2023/01/24 08:01:52;;;;;;;19.20;11.03;;;;;;;18.07;50.38;101969.34;5044128;28;20234;-63
2023/01/24 08:04:17;;;;;;;17.17;9.17;;;;;;;18.30;49.03;101964.25;5032328;28;20197;-63
2023/01/24 08:07:16;;;;;;;16.20;9.67;;;;;;;18.60;48.89;101972.66;5042103;28;20211;-63
2023/01/24 08:09:28;;;;;;;18.67;7.70;;;;;;;18.52;48.50;101966.94;5029281;28;20942;-63
2023/01/24 08:11:54;;;;;;;13.67;8.17;;;;;;;18.28;49.72;101960.91;5044012;28;20422;-63
2023/01/24 08:14:21;;;;;;;23.23;8.70;;;;;;;18.40;49.42;101964.78;5041245;28;20183;-63
2023/01/24 08:16:47;;;;;;;16.73;9.17;;;;;;;18.33;49.33;101977.91;5048678;28;20911;-63
2023/01/24 08:19:12;;;;;;;16.57;7.40;;;;;;;18.16;49.76;101964.47;5047256;28;20422;-63
2023/01/24 08:21:38;;;;;;;11.57;6.23;;;;;;;18.06;50.27;101976.22;5031176;28;20623;-63
2023/01/24 08:24:03;;;;;;;10.03;6.27;;;;;;;17.96;50.97;101981.47;5029344;28;20192;-63
2023/01/24 08:26:29;;;;;;;17.47;7.87;;;;;;;18.09;50.29;101977.56;5034547;28;20188;-63
2023/01/24 08:28:54;;;;;;;11.90;7.57;;;;;;;18.37;50.62;101979.75;5046134;28;20183;-63
2023/01/24 08:31:20;;;;;;;18.67;8.30;;;;;;;18.49;52.21;101988.50;5034648;28;20554;-63
2023/01/24 08:33:45;;;;;;;11.80;7.30;;;;;;;18.27;51.66;101974.34;5040550;28;20878;-63
2023/01/24 08:36:11;;;;;;;13.10;6.27;;;;;;;18.23;52.19;101969.66;5039859;28;20188;-63
2023/01/24 08:38:36;;;;;;;10.57;6.40;;;;;;;18.07;52.36;101985.66;5035929;28;20620;-63
2023/01/24 08:41:04;;;;;;;19.83;8.70;;;;;;;17.87;50.61;101978.63;5037043;28;20199;-63
2023/01/24 08:43:30;;;;;;;15.83;7.07;;;;;;;17.83;50.18;101974.75;5038052;28;20221;-63
2023/01/24 08:45:56;;;;;;;14.03;7.60;;;;;;;17.84;49.90;101984.13;5034029;28;20443;-63
2023/01/24 08:48:21;;;;;;;12.37;7.40;;;;;;;17.88;49.58;101982.28;5028246;28;20183;-63
2023/01/24 08:50:47;;;;;;;12.83;6.80;;;;;;;17.86;49.50;101991.19;5033699;28;20179;-63
2023/01/24 08:53:12;;;;;;;13.13;6.90;;;;;;;17.82;49.22;101987.34;5044342;28;20173;-63
2023/01/24 08:55:37;;;;;;;14.67;7.10;;;;;;;17.86;48.68;101985.47;5044817;28;20653;-63
2023/01/24 08:58:03;;;;;;;15.53;6.53;;;;;;;17.84;48.14;101987.00;5050817;28;20218;-62
2023/01/24 09:00:29;;;;;;;15.27;7.07;;;;;;;17.79;48.44;101990.88;5045825;28;20223;-62
2023/01/24 09:02:54;;;;;;;15.97;7.70;;;;;;;17.78;48.12;101992.06;5050172;28;20200;-63
2023/01/24 09:05:20;;;;;;;14.53;6.97;;;;;;;17.74;48.50;102001.59;5035895;28;20208;-63
2023/01/24 09:07:46;;;;;;;14.17;7.07;;;;;;;17.66;48.33;101994.72;5033367;28;20192;-63
2023/01/24 09:10:11;;;;;;;21.27;7.70;;;;;;;17.69;48.38;102002.63;5042441;28;20262;-63
2023/01/24 09:12:37;;;;;;;17.80;7.07;;;;;;;17.65;48.88;102004.47;5040411;28;20419;-63
2023/01/24 09:15:02;;;;;;;13.77;6.90;;;;;;;17.63;48.16;102000.25;5049146;28;20646;-63
2023/01/24 09:17:28;;;;;;;19.43;6.83;;;;;;;17.58;49.44;102001.25;5047870;28;20189;-63
2023/01/24 09:19:54;;;;;;;28.27;8.00;;;;;;;17.63;49.10;102012.53;5031623;28;20199;-63
2023/01/24 09:22:19;;;;;;;16.83;7.33;;;;;;;17.59;49.38;102007.81;5030792;28;20195;-63
2023/01/24 09:24:44;;;;;;;15.03;7.07;;;;;;;17.63;49.11;102000.25;5030715;28;20208;-63
2023/01/24 09:27:10;;;;;;;17.73;7.60;;;;;;;17.69;49.16;102004.63;5033102;28;20245;-63
2023/01/24 09:29:36;;;;;;;18.17;6.20;;;;;;;17.66;49.26;102006.13;5030570;28;20180;-63
2023/01/24 09:32:01;;;;;;;12.00;6.70;;;;;;;17.68;49.52;102008.66;5033157;28;20419;-63
2023/01/24 09:34:27;;;;;;;25.53;6.83;;;;;;;17.69;49.65;102005.47;5032674;28;20189;-63
2023/01/24 09:36:52;;;;;;;27.67;6.90;;;;;;;17.72;49.61;102007.69;5030697;28;20169;-63
2023/01/24 09:39:17;;;;;;;13.67;5.73;;;;;;;17.65;49.89;102010.16;5045280;28;20193;-62
2023/01/24 09:41:59;;;;;;;18.37;6.43;;;;;;;17.68;50.00;102012.38;5052477;28;20241;-63
2023/01/24 09:44:36;;;;;;;25.80;8.17;;;;;;;17.69;50.06;102005.47;5051701;28;20191;-63
2023/01/24 09:47:02;;;;;;;16.17;6.40;;;;;;;17.64;50.44;102008.50;5034020;28;20441;-64
2023/01/24 09:49:33;;;;;;;15.27;6.00;;;;;;;17.64;50.09;102014.22;5032683;28;20430;-63
2023/01/24 09:51:59;;;;;;;11.37;5.93;;;;;;;17.67;50.25;102019.25;5036094;28;20929;-64
2023/01/24 09:54:33;;;;;;;19.33;6.50;;;;;;;17.68;50.20;102020.94;5032433;28;20412;-63
2023/01/24 09:56:58;;;;;;;13.47;6.27;;;;;;;17.63;50.41;102017.38;5016745;28;20164;-63
2023/01/24 09:59:38;;;;;;;14.40;6.27;;;;;;;17.62;50.28;102016.56;5031862;28;20422;-63
2023/01/24 10:02:11;;;;;;;15.30;5.90;;;;;;;17.66;50.30;102011.03;5035407;28;20319;-64
2023/01/24 10:04:37;;;;;;;15.47;5.70;;;;;;;17.65;50.34;102013.03;5038959;28;20455;-63
2023/01/24 10:07:29;;;;;;;11.13;5.50;;;;;;;17.65;50.36;102012.19;5036370;28;20450;-63
2023/01/24 10:10:12;;;;;;;17.27;5.80;;;;;;;17.59;50.94;102007.81;5032588;28;20513;-63
2023/01/24 10:13:04;;;;;;;13.93;6.30;;;;;;;17.68;50.71;102009.50;5035672;28;20441;-63
2023/01/24 10:15:38;;;;;;;16.10;6.70;;;;;;;17.60;50.58;102001.75;5032765;28;20519;-63
2023/01/24 10:18:19;;;;;;;10.60;6.30;;;;;;;17.67;50.69;102004.97;5051208;28;20425;-63
2023/01/24 10:20:56;;;;;;;9.87;5.57;;;;;;;17.63;51.01;102006.81;5051532;28;20556;-63
2023/01/24 10:23:25;;;;;;;13.03;5.93;;;;;;;17.63;50.83;102001.09;5033298;28;20459;-63
2023/01/24 10:25:55;;;;;;;13.90;6.07;;;;;;;17.68;50.80;101995.22;5045435;28;20924;-63
2023/01/24 10:28:38;;;;;;;12.60;6.00;;;;;;;17.66;50.89;101993.88;5036284;28;20803;-63
2023/01/24 10:31:34;;;;;;;11.33;5.40;;;;;;;17.68;51.01;101995.22;5048207;28;20525;-63
2023/01/24 10:34:09;;;;;;;13.20;5.70;;;;;;;17.63;51.20;101988.81;5045087;28;20422;-63
2023/01/24 10:36:52;;;;;;;12.97;5.33;;;;;;;17.63;51.18;101992.53;5024147;28;20444;-63
2023/01/24 10:39:17;;;;;;;14.73;6.10;;;;;;;17.65;51.01;101989.34;5051760;28;20500;-63
2023/01/24 10:41:43;;;;;;;13.80;5.70;;;;;;;17.73;50.89;101991.38;5049255;28;20443;-63
2023/01/24 10:44:22;;;;;;;11.90;5.40;;;;;;;17.65;51.15;101975.06;5051092;28;20522;-63
2023/01/24 10:46:59;;;;;;;12.40;5.87;;;;;;;17.70;51.20;101975.72;5045792;28;20233;-63
2023/01/24 10:49:34;;;;;;;11.70;4.70;;;;;;;17.65;51.01;101978.75;5032839;28;20442;-63
2023/01/24 10:52:33;;;;;;;8.07;4.90;;;;;;;17.64;51.45;101979.94;5030856;28;20422;-63
2023/01/24 10:55:01;;;;;;;12.30;6.40;;;;;;;17.68;51.05;101980.09;5036025;28;20957;-63
2023/01/24 10:57:39;;;;;;;10.10;5.70;;;;;;;17.68;51.17;101980.94;5032131;28;20441;-63
2023/01/24 11:00:17;;;;;;;15.33;6.10;;;;;;;17.69;50.74;101982.63;5036038;28;21041;-63
2023/01/24 11:02:47;;;;;;;12.60;5.60;;;;;;;17.69;51.27;101982.63;5051841;28;20433;-63
2023/01/24 11:05:12;;;;;;;12.57;5.20;;;;;;;17.65;50.89;101987.31;5031554;28;20474;-62
2023/01/24 11:07:40;;;;;;;13.57;5.57;;;;;;;17.73;50.70;101979.94;5039813;28;21083;-61
2023/01/24 11:10:15;;;;;;;10.50;5.30;;;;;;;17.70;51.35;101986.34;5034109;28;20182;-61
2023/01/24 11:12:52;;;;;;;9.73;5.03;;;;;;;17.65;51.32;101980.78;5040656;28;20453;-62
2023/01/24 11:15:21;;;;;;;12.17;5.53;;;;;;;17.67;51.30;101981.28;5031511;28;20429;-61
2023/01/24 11:17:46;;;;;;;9.30;4.80;;;;;;;17.69;51.52;101988.34;5030624;28;20435;-61
2023/01/24 11:20:35;;;;;;;10.00;5.30;;;;;;;17.70;51.18;101992.88;5033920;28;20414;-61
2023/01/24 11:23:12;;;;;;;10.43;5.23;;;;;;;17.66;51.34;101989.00;5055153;28;20559;-61
2023/01/24 11:25:53;;;;;;;10.93;5.67;;;;;;;17.67;51.33;101993.56;5051589;28;20784;-61
2023/01/24 11:28:26;;;;;;;9.90;5.40;;;;;;;17.68;51.14;101985.81;5044725;28;20848;-61
2023/01/24 11:30:51;;;;;;;11.53;4.77;;;;;;;17.67;51.38;101978.44;5032038;28;20866;-61
2023/01/24 11:33:24;;;;;;;13.40;5.37;;;;;;;17.65;51.48;101986.50;5031944;28;20445;-61
2023/01/24 11:35:55;;;;;;;12.90;5.57;;;;;;;17.67;51.18;101979.28;5033013;28;20206;-61
2023/01/24 11:38:35;;;;;;;9.90;4.30;;;;;;;17.62;51.35;101990.00;5030492;28;20518;-61
2023/01/24 11:41:11;;;;;;;17.33;5.70;;;;;;;17.64;51.51;101982.78;5028535;28;20419;-61
2023/01/24 11:43:54;;;;;;;11.00;5.37;;;;;;;17.62;51.71;101976.59;5048122;28;20470;-61
2023/01/24 11:46:43;;;;;;;9.77;4.93;;;;;;;17.66;51.43;101977.56;5051611;28;20455;-61
2023/01/24 11:49:14;;;;;;;12.27;6.20;;;;;;;17.71;51.50;101976.59;5036352;28;20458;-61
2023/01/24 11:52:07;;;;;;;11.57;4.90;;;;;;;17.70;51.34;101981.44;5031697;28;20500;-61
2023/01/24 11:54:59;;;;;;;13.50;5.37;;;;;;;17.65;51.23;101970.19;5033759;28;20492;-62
2023/01/24 11:57:39;;;;;;;10.97;5.67;;;;;;;17.66;51.69;101974.72;5030525;28;20763;-61
2023/01/24 12:00:26;;;;;;;9.70;4.90;;;;;;;17.71;51.32;101968.84;5031143;28;20471;-62
2023/01/24 12:03:33;;;;;;;13.63;5.13;;;;;;;17.69;51.59;101958.94;5033430;28;20497;-61
2023/01/24 12:06:10;;;;;;;8.50;4.90;;;;;;;17.72;51.22;101963.97;5030185;28;20450;-62